sensor_id;sensor_type;location;lat;lon;timestamp;pressure;altitude;pressure_sealevel;temperature;humidity
61568;BME280;47462;59.172;17.196;2023-10-19T00:00:37;101360.91;;;1.58;92.22
61568;BME280;47462;59.172;17.196;2023-10-19T00:03:06;101375.50;;;1.58;92.39
61568;BME280;47462;59.172;17.196;2023-10-19T00:05:36;101361.81;;;1.60;92.40
61568;BME280;47462;59.172;17.196;2023-10-19T00:08:03;101366.81;;;1.53;92.08
61568;BME280;47462;59.172;17.196;2023-10-19T00:10:38;101369.41;;;1.54;92.38
61568;BME280;47462;59.172;17.196;2023-10-19T00:13:04;101372.78;;;1.50;92.37
61568;BME280;47462;59.172;17.196;2023-10-19T00:15:37;101368.47;;;1.49;92.49
61568;BME280;47462;59.172;17.196;2023-10-19T00:18:06;101371.81;;;1.47;92.59
61568;BME280;47462;59.172;17.196;2023-10-19T00:20:42;101367.50;;;1.44;92.73
61568;BME280;47462;59.172;17.196;2023-10-19T00:23:10;101373.47;;;1.41;92.95
61568;BME280;47462;59.172;17.196;2023-10-19T00:25:38;101373.44;;;1.40;93.19
61568;BME280;47462;59.172;17.196;2023-10-19T00:28:07;101358.88;;;1.42;92.99
61568;BME280;47462;59.172;17.196;2023-10-19T00:30:32;101362.41;;;1.46;93.20
61568;BME280;47462;59.172;17.196;2023-10-19T00:33:01;101358.19;;;1.51;93.28
61568;BME280;47462;59.172;17.196;2023-10-19T00:35:30;101353.91;;;1.51;93.02
61568;BME280;47462;59.172;17.196;2023-10-19T00:38:08;101360.81;;;1.52;93.29
61568;BME280;47462;59.172;17.196;2023-10-19T00:40:54;101360.78;;;1.51;92.90
61568;BME280;47462;59.172;17.196;2023-10-19T00:43:37;101361.69;;;1.54;93.15
61568;BME280;47462;59.172;17.196;2023-10-19T00:46:07;101360.84;;;1.55;93.47
61568;BME280;47462;59.172;17.196;2023-10-19T00:48:45;101357.50;;;1.59;93.33
61568;BME280;47462;59.172;17.196;2023-10-19T00:51:14;101358.47;;;1.65;93.31
61568;BME280;47462;59.172;17.196;2023-10-19T00:56:37;101361.97;;;1.70;92.94
61568;BME280;47462;59.172;17.196;2023-10-19T00:59:06;101352.47;;;1.64;92.92
61568;BME280;47462;59.172;17.196;2023-10-19T01:01:40;101350.75;;;1.65;93.21
61568;BME280;47462;59.172;17.196;2023-10-19T01:04:14;101345.63;;;1.66;93.17
61568;BME280;47462;59.172;17.196;2023-10-19T01:06:45;101352.59;;;1.72;93.40
61568;BME280;47462;59.172;17.196;2023-10-19T01:09:24;101352.66;;;1.75;93.21
61568;BME280;47462;59.172;17.196;2023-10-19T01:11:52;101348.38;;;1.77;93.08
61568;BME280;47462;59.172;17.196;2023-10-19T01:14:22;101346.72;;;1.81;92.81
61568;BME280;47462;59.172;17.196;2023-10-19T01:16:48;101344.13;;;1.79;92.72
61568;BME280;47462;59.172;17.196;2023-10-19T01:19:15;101351.03;;;1.82;92.84
61568;BME280;47462;59.172;17.196;2023-10-19T01:21:44;101344.06;;;1.76;92.41
61568;BME280;47462;59.172;17.196;2023-10-19T01:24:12;101345.66;;;1.68;92.76
61568;BME280;47462;59.172;17.196;2023-10-19T01:26:42;101343.97;;;1.70;93.23
61568;BME280;47462;59.172;17.196;2023-10-19T01:29:07;101342.25;;;1.69;92.93
61568;BME280;47462;59.172;17.196;2023-10-19T01:31:39;101343.94;;;1.68;93.16
61568;BME280;47462;59.172;17.196;2023-10-19T01:34:17;101350.03;;;1.73;92.83
61568;BME280;47462;59.172;17.196;2023-10-19T01:36:45;101334.59;;;1.72;93.38
61568;BME280;47462;59.172;17.196;2023-10-19T01:39:16;101336.31;;;1.74;93.27
61568;BME280;47462;59.172;17.196;2023-10-19T01:41:44;101341.50;;;1.76;93.13
61568;BME280;47462;59.172;17.196;2023-10-19T01:44:09;101330.44;;;1.80;92.92
61568;BME280;47462;59.172;17.196;2023-10-19T01:46:39;101323.47;;;1.76;92.82
61568;BME280;47462;59.172;17.196;2023-10-19T01:49:04;101330.31;;;1.74;92.83
61568;BME280;47462;59.172;17.196;2023-10-19T01:51:34;101331.25;;;1.79;92.84
61568;BME280;47462;59.172;17.196;2023-10-19T01:54:08;101330.38;;;1.77;92.73
61568;BME280;47462;59.172;17.196;2023-10-19T01:56:34;101332.94;;;1.77;92.80
61568;BME280;47462;59.172;17.196;2023-10-19T01:59:04;101333.00;;;1.80;92.80
61568;BME280;47462;59.172;17.196;2023-10-19T02:01:30;101342.50;;;1.83;92.57
61568;BME280;47462;59.172;17.196;2023-10-19T02:03:59;101329.53;;;1.78;92.78
61568;BME280;47462;59.172;17.196;2023-10-19T02:06:26;101336.47;;;1.84;92.59
61568;BME280;47462;59.172;17.196;2023-10-19T02:09:02;101330.56;;;1.88;92.54
61568;BME280;47462;59.172;17.196;2023-10-19T02:11:48;101331.50;;;1.93;92.48
61568;BME280;47462;59.172;17.196;2023-10-19T02:14:15;101333.16;;;1.89;92.59
61568;BME280;47462;59.172;17.196;2023-10-19T02:16:54;101336.59;;;1.90;92.64
61568;BME280;47462;59.172;17.196;2023-10-19T02:19:25;101325.47;;;1.91;93.00
61568;BME280;47462;59.172;17.196;2023-10-19T02:22:00;101328.94;;;1.94;92.44
61568;BME280;47462;59.172;17.196;2023-10-19T02:24:28;101328.94;;;1.94;92.84
61568;BME280;47462;59.172;17.196;2023-10-19T02:26:55;101332.44;;;1.96;92.78
61568;BME280;47462;59.172;17.196;2023-10-19T02:29:21;101333.22;;;1.94;92.19
61568;BME280;47462;59.172;17.196;2023-10-19T02:31:47;101338.34;;;1.91;92.35
61568;BME280;47462;59.172;17.196;2023-10-19T02:34:13;101331.34;;;1.85;92.07
61568;BME280;47462;59.172;17.196;2023-10-19T02:36:41;101326.97;;;1.78;92.24
61568;BME280;47462;59.172;17.196;2023-10-19T02:39:09;101329.44;;;1.72;92.01
61568;BME280;47462;59.172;17.196;2023-10-19T02:44:04;101329.16;;;1.56;91.84
61568;BME280;47462;59.172;17.196;2023-10-19T02:46:31;101332.53;;;1.54;92.09
61568;BME280;47462;59.172;17.196;2023-10-19T02:49:03;101334.16;;;1.49;91.72
61568;BME280;47462;59.172;17.196;2023-10-19T02:51:32;101334.91;;;1.43;92.09
61568;BME280;47462;59.172;17.196;2023-10-19T02:53:57;101339.09;;;1.38;91.88
61568;BME280;47462;59.172;17.196;2023-10-19T02:56:27;101342.47;;;1.35;91.88
61568;BME280;47462;59.172;17.196;2023-10-19T02:58:55;101338.09;;;1.31;91.98
61568;BME280;47462;59.172;17.196;2023-10-19T03:01:27;101340.59;;;1.27;91.57
61568;BME280;47462;59.172;17.196;2023-10-19T03:03:56;101342.31;;;1.28;91.76
61568;BME280;47462;59.172;17.196;2023-10-19T03:06:29;101327.59;;;1.20;91.71
61568;BME280;47462;59.172;17.196;2023-10-19T03:08:59;101329.22;;;1.15;91.76
61568;BME280;47462;59.172;17.196;2023-10-19T03:11:30;101337.84;;;1.17;91.71
61568;BME280;47462;59.172;17.196;2023-10-19T03:13:57;101340.44;;;1.19;92.16
61568;BME280;47462;59.172;17.196;2023-10-19T03:16:23;101336.13;;;1.18;91.60
61568;BME280;47462;59.172;17.196;2023-10-19T03:18:49;101325.75;;;1.13;91.84
61568;BME280;47462;59.172;17.196;2023-10-19T03:21:20;101334.31;;;1.12;91.54
61568;BME280;47462;59.172;17.196;2023-10-19T03:23:52;101333.22;;;1.02;91.81
61568;BME280;47462;59.172;17.196;2023-10-19T03:26:18;101327.19;;;0.99;91.59
61568;BME280;47462;59.172;17.196;2023-10-19T03:29:03;101337.28;;;0.91;92.00
61568;BME280;47462;59.172;17.196;2023-10-19T03:31:39;101338.09;;;0.88;92.16
61568;BME280;47462;59.172;17.196;2023-10-19T03:34:12;101330.38;;;0.88;92.09
61568;BME280;47462;59.172;17.196;2023-10-19T03:36:38;101337.16;;;0.85;92.36
61568;BME280;47462;59.172;17.196;2023-10-19T03:39:04;101335.38;;;0.82;92.09
61568;BME280;47462;59.172;17.196;2023-10-19T03:41:43;101332.09;;;0.88;92.22
61568;BME280;47462;59.172;17.196;2023-10-19T03:44:13;101335.50;;;0.87;92.55
61568;BME280;47462;59.172;17.196;2023-10-19T03:46:50;101325.25;;;0.88;92.51
61568;BME280;47462;59.172;17.196;2023-10-19T03:49:22;101328.72;;;0.91;92.37
61568;BME280;47462;59.172;17.196;2023-10-19T03:51:48;101327.94;;;0.95;92.72
61568;BME280;47462;59.172;17.196;2023-10-19T03:54:49;101324.50;;;0.94;92.82
61568;BME280;47462;59.172;17.196;2023-10-19T03:57:16;101337.38;;;0.94;93.21
61568;BME280;47462;59.172;17.196;2023-10-19T03:59:46;101331.47;;;0.98;93.32
61568;BME280;47462;59.172;17.196;2023-10-19T04:02:14;101333.94;;;0.94;93.41
61568;BME280;47462;59.172;17.196;2023-10-19T04:04:46;101331.41;;;0.95;93.00
61568;BME280;47462;59.172;17.196;2023-10-19T04:07:14;101329.69;;;0.96;93.31
61568;BME280;47462;59.172;17.196;2023-10-19T04:09:57;101333.03;;;0.93;93.56
61568;BME280;47462;59.172;17.196;2023-10-19T04:12:29;101326.19;;;0.92;93.91
61568;BME280;47462;59.172;17.196;2023-10-19T04:14:56;101327.88;;;0.92;93.75
61568;BME280;47462;59.172;17.196;2023-10-19T04:17:22;101328.78;;;0.94;93.86
61568;BME280;47462;59.172;17.196;2023-10-19T04:19:49;101327.97;;;0.96;93.76
61568;BME280;47462;59.172;17.196;2023-10-19T04:22:16;101326.28;;;0.97;93.96
61568;BME280;47462;59.172;17.196;2023-10-19T04:24:47;101327.97;;;0.96;93.93
61568;BME280;47462;59.172;17.196;2023-10-19T04:27:12;101318.63;;;1.00;93.52
61568;BME280;47462;59.172;17.196;2023-10-19T04:29:38;101310.81;;;0.94;93.62
61568;BME280;47462;59.172;17.196;2023-10-19T04:32:06;101324.50;;;0.94;93.66
61568;BME280;47462;59.172;17.196;2023-10-19T04:34:32;101316.66;;;0.86;93.93
61568;BME280;47462;59.172;17.196;2023-10-19T04:36:57;101320.97;;;0.87;93.75
61568;BME280;47462;59.172;17.196;2023-10-19T04:39:22;101315.84;;;0.89;94.08
61568;BME280;47462;59.172;17.196;2023-10-19T04:41:49;101321.03;;;0.91;93.73
61568;BME280;47462;59.172;17.196;2023-10-19T04:44:15;101317.59;;;0.92;93.56
61568;BME280;47462;59.172;17.196;2023-10-19T04:46:41;101312.47;;;0.93;93.85
61568;BME280;47462;59.172;17.196;2023-10-19T04:49:06;101319.25;;;0.88;93.67
61568;BME280;47462;59.172;17.196;2023-10-19T04:51:32;101302.00;;;0.82;93.83
61568;BME280;47462;59.172;17.196;2023-10-19T04:53:58;101327.91;;;0.93;93.42
61568;BME280;47462;59.172;17.196;2023-10-19T04:56:24;101324.53;;;0.96;93.52
61568;BME280;47462;59.172;17.196;2023-10-19T04:58:49;101325.53;;;1.02;93.55
61568;BME280;47462;59.172;17.196;2023-10-19T05:01:15;101324.69;;;1.03;93.45
61568;BME280;47462;59.172;17.196;2023-10-19T05:03:41;101323.78;;;1.00;93.11
61568;BME280;47462;59.172;17.196;2023-10-19T05:06:07;101327.19;;;0.99;92.79
61568;BME280;47462;59.172;17.196;2023-10-19T05:08:34;101316.84;;;0.96;92.69
61568;BME280;47462;59.172;17.196;2023-10-19T05:11:00;101319.50;;;1.00;93.04
61568;BME280;47462;59.172;17.196;2023-10-19T05:13:26;101316.84;;;0.96;92.41
61568;BME280;47462;59.172;17.196;2023-10-19T05:15:55;101303.88;;;0.91;92.28
61568;BME280;47462;59.172;17.196;2023-10-19T05:18:22;101317.47;;;0.85;92.04
61568;BME280;47462;59.172;17.196;2023-10-19T05:20:47;101324.28;;;0.83;92.09
61568;BME280;47462;59.172;17.196;2023-10-19T05:23:13;101319.97;;;0.82;92.40
61568;BME280;47462;59.172;17.196;2023-10-19T05:25:39;101327.72;;;0.84;92.09
61568;BME280;47462;59.172;17.196;2023-10-19T05:28:05;101325.03;;;0.79;92.16
61568;BME280;47462;59.172;17.196;2023-10-19T05:30:33;101330.94;;;0.74;91.80
61568;BME280;47462;59.172;17.196;2023-10-19T05:32:59;101318.06;;;0.72;92.02
61568;BME280;47462;59.172;17.196;2023-10-19T05:35:27;101324.03;;;0.71;92.27
61568;BME280;47462;59.172;17.196;2023-10-19T05:37:53;101314.44;;;0.64;92.25
61568;BME280;47462;59.172;17.196;2023-10-19T05:40:22;101310.22;;;0.66;92.33
61568;BME280;47462;59.172;17.196;2023-10-19T05:42:49;101308.47;;;0.65;92.24
61568;BME280;47462;59.172;17.196;2023-10-19T05:45:14;101323.94;;;0.66;92.58
61568;BME280;47462;59.172;17.196;2023-10-19T05:47:42;101318.84;;;0.69;92.22
61568;BME280;47462;59.172;17.196;2023-10-19T05:50:09;101316.22;;;0.66;91.85
61568;BME280;47462;59.172;17.196;2023-10-19T05:52:35;101316.19;;;0.65;92.41
61568;BME280;47462;59.172;17.196;2023-10-19T05:55:01;101324.66;;;0.61;92.23
61568;BME280;47462;59.172;17.196;2023-10-19T05:57:27;101316.94;;;0.61;92.62
61568;BME280;47462;59.172;17.196;2023-10-19T05:59:52;101321.25;;;0.62;92.48
61568;BME280;47462;59.172;17.196;2023-10-19T06:02:17;101329.19;;;0.73;92.71
61568;BME280;47462;59.172;17.196;2023-10-19T06:04:43;101330.13;;;0.76;92.67
61568;BME280;47462;59.172;17.196;2023-10-19T06:07:09;101332.06;;;0.86;92.72
61568;BME280;47462;59.172;17.196;2023-10-19T06:09:35;101331.31;;;0.91;92.87
61568;BME280;47462;59.172;17.196;2023-10-19T06:12:01;101342.41;;;0.89;92.52
61568;BME280;47462;59.172;17.196;2023-10-19T06:14:27;101333.91;;;0.92;92.69
61568;BME280;47462;59.172;17.196;2023-10-19T06:16:55;101337.47;;;0.99;92.66
61568;BME280;47462;59.172;17.196;2023-10-19T06:19:21;101328.78;;;0.94;92.58
61568;BME280;47462;59.172;17.196;2023-10-19T06:21:47;101323.59;;;0.91;92.69
61568;BME280;47462;59.172;17.196;2023-10-19T06:24:15;101332.19;;;0.93;92.91
61568;BME280;47462;59.172;17.196;2023-10-19T06:26:42;101328.81;;;0.95;93.02
61568;BME280;47462;59.172;17.196;2023-10-19T06:29:08;101327.13;;;0.96;92.98
61568;BME280;47462;59.172;17.196;2023-10-19T06:31:33;101327.19;;;0.99;92.56
61568;BME280;47462;59.172;17.196;2023-10-19T06:33:59;101324.59;;;0.99;92.90
61568;BME280;47462;59.172;17.196;2023-10-19T06:36:25;101313.50;;;1.00;92.48
61568;BME280;47462;59.172;17.196;2023-10-19T06:38:51;101315.25;;;1.02;92.46
61568;BME280;47462;59.172;17.196;2023-10-19T06:41:16;101323.16;;;1.13;92.87
61568;BME280;47462;59.172;17.196;2023-10-19T06:43:43;101319.06;;;1.21;92.07
61568;BME280;47462;59.172;17.196;2023-10-19T06:46:09;101315.69;;;1.25;91.74
61568;BME280;47462;59.172;17.196;2023-10-19T06:48:40;101310.69;;;1.32;91.80
61568;BME280;47462;59.172;17.196;2023-10-19T06:51:05;101313.34;;;1.35;91.71
61568;BME280;47462;59.172;17.196;2023-10-19T06:53:31;101298.69;;;1.32;91.26
61568;BME280;47462;59.172;17.196;2023-10-19T06:55:58;101308.16;;;1.33;91.36
61568;BME280;47462;59.172;17.196;2023-10-19T06:58:24;101305.69;;;1.38;91.46
61568;BME280;47462;59.172;17.196;2023-10-19T07:00:52;101303.06;;;1.36;91.03
61568;BME280;47462;59.172;17.196;2023-10-19T07:03:33;101306.59;;;1.41;91.21
61568;BME280;47462;59.172;17.196;2023-10-19T07:05:58;101307.38;;;1.39;91.02
61568;BME280;47462;59.172;17.196;2023-10-19T07:08:25;101308.38;;;1.46;90.82
61568;BME280;47462;59.172;17.196;2023-10-19T07:10:52;101311.03;;;1.50;90.57
61568;BME280;47462;59.172;17.196;2023-10-19T07:13:18;101314.50;;;1.52;90.71
61568;BME280;47462;59.172;17.196;2023-10-19T07:15:46;101306.13;;;1.63;90.22
61568;BME280;47462;59.172;17.196;2023-10-19T07:18:13;101318.22;;;1.70;90.32
61568;BME280;47462;59.172;17.196;2023-10-19T07:20:39;101309.66;;;1.69;90.20
61568;BME280;47462;59.172;17.196;2023-10-19T07:23:05;101307.94;;;1.70;90.08
61568;BME280;47462;59.172;17.196;2023-10-19T07:25:57;101306.31;;;1.73;90.04
61568;BME280;47462;59.172;17.196;2023-10-19T07:28:25;101302.88;;;1.74;89.84
61568;BME280;47462;59.172;17.196;2023-10-19T07:30:55;101305.53;;;1.79;90.10
61568;BME280;47462;59.172;17.196;2023-10-19T07:33:21;101308.16;;;1.82;89.62
61568;BME280;47462;59.172;17.196;2023-10-19T07:35:49;101306.47;;;1.84;89.36
61568;BME280;47462;59.172;17.196;2023-10-19T07:38:23;101309.88;;;1.83;89.85
61568;BME280;47462;59.172;17.196;2023-10-19T07:40:49;101309.13;;;1.89;89.74
61568;BME280;47462;59.172;17.196;2023-10-19T07:43:18;101304.00;;;1.90;89.61
61568;BME280;47462;59.172;17.196;2023-10-19T07:45:46;101305.69;;;1.90;89.50
61568;BME280;47462;59.172;17.196;2023-10-19T07:48:13;101298.00;;;1.91;88.78
61568;BME280;47462;59.172;17.196;2023-10-19T07:50:39;101308.44;;;1.98;88.58
61568;BME280;47462;59.172;17.196;2023-10-19T07:53:06;101312.75;;;2.02;88.66
61568;BME280;47462;59.172;17.196;2023-10-19T07:55:32;101310.25;;;2.05;88.72
61568;BME280;47462;59.172;17.196;2023-10-19T07:57:57;101308.53;;;2.04;88.15
61568;BME280;47462;59.172;17.196;2023-10-19T08:00:25;101308.53;;;2.04;88.33
61568;BME280;47462;59.172;17.196;2023-10-19T08:02:52;101308.53;;;2.04;88.27
61568;BME280;47462;59.172;17.196;2023-10-19T08:05:19;101312.88;;;2.09;88.33
61568;BME280;47462;59.172;17.196;2023-10-19T08:07:45;101308.66;;;2.13;88.38
61568;BME280;47462;59.172;17.196;2023-10-19T08:10:13;101312.13;;;2.15;88.03
61568;BME280;47462;59.172;17.196;2023-10-19T08:12:41;101302.63;;;2.12;87.65
61568;BME280;47462;59.172;17.196;2023-10-19T08:15:07;101303.59;;;2.18;87.51
61568;BME280;47462;59.172;17.196;2023-10-19T08:17:33;101300.03;;;2.11;86.96
61568;BME280;47462;59.172;17.196;2023-10-19T08:20:04;101294.97;;;2.16;87.46
61568;BME280;47462;59.172;17.196;2023-10-19T08:22:33;101290.69;;;2.16;87.20
61568;BME280;47462;59.172;17.196;2023-10-19T08:24:59;101304.38;;;2.13;87.16
61568;BME280;47462;59.172;17.196;2023-10-19T08:27:24;101304.50;;;2.21;87.09
61568;BME280;47462;59.172;17.196;2023-10-19T08:29:50;101301.91;;;2.21;86.94
61568;BME280;47462;59.172;17.196;2023-10-19T08:32:15;101298.66;;;2.31;86.87
61568;BME280;47462;59.172;17.196;2023-10-19T08:34:41;101300.41;;;2.36;86.92
61568;BME280;47462;59.172;17.196;2023-10-19T08:37:07;101294.41;;;2.35;86.66
61568;BME280;47462;59.172;17.196;2023-10-19T08:39:33;101297.97;;;2.45;86.79
61568;BME280;47462;59.172;17.196;2023-10-19T08:42:05;101304.16;;;2.56;86.92
61568;BME280;47462;59.172;17.196;2023-10-19T08:44:31;101296.47;;;2.61;86.16
61568;BME280;47462;59.172;17.196;2023-10-19T08:46:57;101292.97;;;2.56;86.09
61568;BME280;47462;59.172;17.196;2023-10-19T08:49:23;101306.91;;;2.68;85.99
61568;BME280;47462;59.172;17.196;2023-10-19T08:51:48;101300.00;;;2.67;85.68
61568;BME280;47462;59.172;17.196;2023-10-19T08:54:16;101305.22;;;2.72;85.24
61568;BME280;47462;59.172;17.196;2023-10-19T08:56:42;101289.00;;;2.79;85.28
61568;BME280;47462;59.172;17.196;2023-10-19T08:59:10;101289.09;;;2.87;84.57
61568;BME280;47462;59.172;17.196;2023-10-19T09:01:38;101286.47;;;2.84;84.41
61568;BME280;47462;59.172;17.196;2023-10-19T09:04:04;101288.19;;;2.82;84.92
61568;BME280;47462;59.172;17.196;2023-10-19T09:06:37;101283.81;;;2.78;84.93
61568;BME280;47462;59.172;17.196;2023-10-19T09:09:11;101282.97;;;2.77;84.00
61568;BME280;47462;59.172;17.196;2023-10-19T09:11:48;101278.75;;;2.84;84.02
61568;BME280;47462;59.172;17.196;2023-10-19T09:14:31;101282.28;;;2.94;83.83
61568;BME280;47462;59.172;17.196;2023-10-19T09:16:59;101283.25;;;3.00;83.78
61568;BME280;47462;59.172;17.196;2023-10-19T09:19:45;101279.88;;;3.09;83.68
61568;BME280;47462;59.172;17.196;2023-10-19T09:22:14;101274.75;;;3.11;83.52
61568;BME280;47462;59.172;17.196;2023-10-19T09:24:51;101279.06;;;3.12;82.97
61568;BME280;47462;59.172;17.196;2023-10-19T09:27:20;101272.91;;;3.00;82.83
61568;BME280;47462;59.172;17.196;2023-10-19T09:29:47;101279.03;;;3.09;83.06
61568;BME280;47462;59.172;17.196;2023-10-19T09:32:13;101283.34;;;3.10;83.13
61568;BME280;47462;59.172;17.196;2023-10-19T09:34:44;101270.38;;;3.03;82.47
61568;BME280;47462;59.172;17.196;2023-10-19T09:37:10;101282.41;;;3.04;82.10
61568;BME280;47462;59.172;17.196;2023-10-19T09:39:36;101277.31;;;3.11;82.30
61568;BME280;47462;59.172;17.196;2023-10-19T09:42:06;101276.59;;;3.22;82.16
61568;BME280;47462;59.172;17.196;2023-10-19T09:44:55;101274.22;;;3.43;81.94
61568;BME280;47462;59.172;17.196;2023-10-19T09:47:28;101263.22;;;3.62;81.13
61568;BME280;47462;59.172;17.196;2023-10-19T09:49:57;101255.47;;;3.62;80.67
61568;BME280;47462;59.172;17.196;2023-10-19T09:52:23;101268.44;;;3.68;80.51
61568;BME280;47462;59.172;17.196;2023-10-19T09:55:31;101271.03;;;3.68;80.21
61568;BME280;47462;59.172;17.196;2023-10-19T09:58:06;101265.88;;;3.71;80.18
61568;BME280;47462;59.172;17.196;2023-10-19T10:00:35;101269.31;;;3.70;79.72
61568;BME280;47462;59.172;17.196;2023-10-19T10:03:01;101262.38;;;3.63;79.71
61568;BME280;47462;59.172;17.196;2023-10-19T10:10:44;101271.06;;;3.73;78.69
61568;BME280;47462;59.172;17.196;2023-10-19T10:15:56;101272.06;;;3.92;78.42
61568;BME280;47462;59.172;17.196;2023-10-19T10:18:33;101260.06;;;3.97;77.58
61568;BME280;47462;59.172;17.196;2023-10-19T10:21:14;101260.94;;;3.99;76.18
61568;BME280;47462;59.172;17.196;2023-10-19T10:23:46;101262.66;;;3.96;74.40
61568;BME280;47462;59.172;17.196;2023-10-19T10:26:13;101261.81;;;4.00;73.63
61568;BME280;47462;59.172;17.196;2023-10-19T10:29:09;101260.88;;;3.93;71.52
61568;BME280;47462;59.172;17.196;2023-10-19T10:31:44;101263.53;;;3.99;71.32
61568;BME280;47462;59.172;17.196;2023-10-19T10:34:41;101259.34;;;4.17;70.43
61568;BME280;47462;59.172;17.196;2023-10-19T10:37:04;101254.31;;;4.38;70.00
61568;BME280;47462;59.172;17.196;2023-10-19T10:39:32;101251.78;;;4.46;69.32
61568;BME280;47462;59.172;17.196;2023-10-19T10:42:01;101252.66;;;4.53;68.97
61568;BME280;47462;59.172;17.196;2023-10-19T10:44:41;101256.91;;;4.41;68.64
61568;BME280;47462;59.172;17.196;2023-10-19T10:47:08;101255.09;;;4.28;69.19
61568;BME280;47462;59.172;17.196;2023-10-19T10:49:51;101255.97;;;4.28;69.72
61568;BME280;47462;59.172;17.196;2023-10-19T10:52:34;101259.50;;;4.43;69.23
61568;BME280;47462;59.172;17.196;2023-10-19T10:55:13;101251.88;;;4.64;68.55
61568;BME280;47462;59.172;17.196;2023-10-19T10:57:41;101256.22;;;4.76;67.92
61568;BME280;47462;59.172;17.196;2023-10-19T11:00:10;101242.41;;;4.77;66.43
61568;BME280;47462;59.172;17.196;2023-10-19T11:02:41;101245.88;;;4.73;64.58
61568;BME280;47462;59.172;17.196;2023-10-19T11:05:14;101241.53;;;4.71;63.33
61568;BME280;47462;59.172;17.196;2023-10-19T11:07:41;101236.34;;;4.64;64.98
61568;BME280;47462;59.172;17.196;2023-10-19T11:10:27;101249.25;;;4.60;64.41
61568;BME280;47462;59.172;17.196;2023-10-19T11:13:00;101240.56;;;4.52;65.03
61568;BME280;47462;59.172;17.196;2023-10-19T11:15:25;101250.94;;;4.55;64.72
61568;BME280;47462;59.172;17.196;2023-10-19T11:17:51;101260.41;;;4.53;65.21
61568;BME280;47462;59.172;17.196;2023-10-19T11:20:23;101252.56;;;4.37;66.20
61568;BME280;47462;59.172;17.196;2023-10-19T11:22:51;101261.16;;;4.33;66.53
61568;BME280;47462;59.172;17.196;2023-10-19T11:25:24;101259.41;;;4.26;67.32
61568;BME280;47462;59.172;17.196;2023-10-19T11:27:49;101263.72;;;4.28;67.79
61568;BME280;47462;59.172;17.196;2023-10-19T11:30:29;101257.66;;;4.22;68.21
61568;BME280;47462;59.172;17.196;2023-10-19T11:32:56;101263.66;;;4.19;68.48
61568;BME280;47462;59.172;17.196;2023-10-19T11:35:26;101263.66;;;4.19;67.87
61568;BME280;47462;59.172;17.196;2023-10-19T11:37:55;101261.94;;;4.17;68.36
61568;BME280;47462;59.172;17.196;2023-10-19T11:40:25;101253.31;;;4.16;67.83
61568;BME280;47462;59.172;17.196;2023-10-19T11:42:51;101255.97;;;4.30;68.61
61568;BME280;47462;59.172;17.196;2023-10-19T11:45:18;101237.97;;;4.45;68.09
61568;BME280;47462;59.172;17.196;2023-10-19T11:47:44;101239.81;;;4.68;68.03
61568;BME280;47462;59.172;17.196;2023-10-19T11:50:10;101226.94;;;4.83;67.62
61568;BME280;47462;59.172;17.196;2023-10-19T11:52:45;101231.25;;;4.81;67.31
61568;BME280;47462;59.172;17.196;2023-10-19T11:55:12;101232.03;;;4.65;65.91
61568;BME280;47462;59.172;17.196;2023-10-19T11:57:42;101230.22;;;4.49;65.31
61568;BME280;47462;59.172;17.196;2023-10-19T12:00:10;101237.06;;;4.37;65.19
61568;BME280;47462;59.172;17.196;2023-10-19T12:02:39;101229.28;;;4.31;65.60
61568;BME280;47462;59.172;17.196;2023-10-19T12:05:07;101237.94;;;4.41;65.83
61568;BME280;47462;59.172;17.196;2023-10-19T12:07:36;101231.09;;;4.46;65.43
61568;BME280;47462;59.172;17.196;2023-10-19T12:10:03;101224.22;;;4.54;65.98
61568;BME280;47462;59.172;17.196;2023-10-19T12:12:29;101215.66;;;4.61;65.45
61568;BME280;47462;59.172;17.196;2023-10-19T12:14:54;101219.13;;;4.68;65.25
61568;BME280;47462;59.172;17.196;2023-10-19T12:17:20;101223.47;;;4.81;64.78
61568;BME280;47462;59.172;17.196;2023-10-19T12:19:47;101210.56;;;4.86;64.12
61568;BME280;47462;59.172;17.196;2023-10-19T12:22:13;101212.31;;;4.90;64.03
61568;BME280;47462;59.172;17.196;2023-10-19T12:24:38;101210.56;;;4.86;63.85
61568;BME280;47462;59.172;17.196;2023-10-19T12:27:04;101204.53;;;4.79;63.73
61568;BME280;47462;59.172;17.196;2023-10-19T12:29:29;101206.16;;;4.60;63.91
61568;BME280;47462;59.172;17.196;2023-10-19T12:31:57;101210.41;;;4.43;63.33
61568;BME280;47462;59.172;17.196;2023-10-19T12:34:22;101212.94;;;4.34;63.93
61568;BME280;47462;59.172;17.196;2023-10-19T12:36:48;101212.91;;;4.26;64.36
61568;BME280;47462;59.172;17.196;2023-10-19T12:39:15;101211.97;;;4.15;65.31
61568;BME280;47462;59.172;17.196;2023-10-19T12:41:59;101221.34;;;4.00;67.37
61568;BME280;47462;59.172;17.196;2023-10-19T12:44:26;101222.97;;;3.89;68.40
61568;BME280;47462;59.172;17.196;2023-10-19T12:46:55;101217.78;;;3.86;70.38
61568;BME280;47462;59.172;17.196;2023-10-19T12:49:20;101219.53;;;3.87;71.13
61568;BME280;47462;59.172;17.196;2023-10-19T12:51:51;101221.28;;;3.88;72.12
61568;BME280;47462;59.172;17.196;2023-10-19T12:54:17;101214.31;;;3.78;73.04
61568;BME280;47462;59.172;17.196;2023-10-19T12:56:43;101217.69;;;3.70;73.58
61568;BME280;47462;59.172;17.196;2023-10-19T12:59:08;101214.94;;;3.49;74.68
61568;BME280;47462;59.172;17.196;2023-10-19T13:01:34;101212.94;;;3.21;75.84
61568;BME280;47462;59.172;17.196;2023-10-19T13:04:00;101218.72;;;2.96;76.98
61568;BME280;47462;59.172;17.196;2023-10-19T13:06:31;101215.13;;;2.81;77.85
61568;BME280;47462;59.172;17.196;2023-10-19T13:08:58;101216.75;;;2.73;78.41
61568;BME280;47462;59.172;17.196;2023-10-19T13:11:24;101218.19;;;2.51;79.76
61568;BME280;47462;59.172;17.196;2023-10-19T13:13:49;101216.28;;;2.36;80.76